createdAt,value
2019-05-02T00:01:32.819Z,45.87
2019-05-02T00:03:41.040Z,43.87
2019-05-02T00:05:43.594Z,40.52
2019-05-02T00:07:47.141Z,44.60
2019-05-02T00:09:51.709Z,52.03
2019-05-02T00:11:58.813Z,42.48
2019-05-02T00:14:02.387Z,44.20
2019-05-02T00:16:09.072Z,48.13
2019-05-02T00:18:12.911Z,50.03
2019-05-02T00:20:21.254Z,47.08
2019-05-02T00:22:24.533Z,51.83
2019-05-02T00:24:28.457Z,47.23
2019-05-02T00:26:32.591Z,44.38
2019-05-02T00:28:36.899Z,50.65
2019-05-02T00:30:41.017Z,52.53
2019-05-02T00:32:45.224Z,47.03
2019-05-02T00:34:49.440Z,49.40
2019-05-02T00:36:53.654Z,44.50
2019-05-02T00:38:57.857Z,49.77
2019-05-02T00:41:02.585Z,49.75
2019-05-02T00:43:07.813Z,51.55
2019-05-02T00:45:14.084Z,43.83
2019-05-02T00:47:19.224Z,42.33
2019-05-02T00:49:23.425Z,47.15
2019-05-02T00:51:28.142Z,51.48
2019-05-02T00:53:32.357Z,49.45
2019-05-02T00:55:36.887Z,50.78
2019-05-02T00:57:40.718Z,54.85
2019-05-02T00:59:44.887Z,53.87
2019-05-02T01:02:00.002Z,45.90
2019-05-02T01:04:23.340Z,47.25
2019-05-02T01:06:28.047Z,46.73
2019-05-02T01:08:35.618Z,43.73
2019-05-02T01:10:38.011Z,50.25
2019-05-02T01:12:44.375Z,58.17
2019-05-02T01:14:48.065Z,48.83
2019-05-02T01:16:54.438Z,47.93
2019-05-02T01:18:57.537Z,57.53
2019-05-02T01:21:02.764Z,49.10
2019-05-02T01:23:07.302Z,54.67
2019-05-02T01:25:15.793Z,54.03
2019-05-02T01:27:19.390Z,50.20
2019-05-02T01:29:29.752Z,58.83
2019-05-02T01:31:37.548Z,49.33
2019-05-02T01:33:55.370Z,51.75
2019-05-02T01:36:06.241Z,55.70
2019-05-02T01:38:31.632Z,53.58
2019-05-02T01:40:31.767Z,56.83
2019-05-02T01:42:39.965Z,51.98
2019-05-02T01:44:41.724Z,61.75
2019-05-02T01:46:45.836Z,59.77
2019-05-02T01:48:50.069Z,64.80
2019-05-02T01:50:54.271Z,61.15
2019-05-02T01:53:00.097Z,60.25
2019-05-02T01:55:06.508Z,69.40
2019-05-02T01:57:10.686Z,64.20
2019-05-02T01:59:14.908Z,71.25
2019-05-02T02:01:21.402Z,68.37
2019-05-02T02:03:24.790Z,67.35
2019-05-02T02:05:32.246Z,70.08
2019-05-02T02:07:34.543Z,70.52
2019-05-02T02:09:43.619Z,70.03
2019-05-02T02:11:44.693Z,66.90
2019-05-02T02:13:48.537Z,65.97
2019-05-02T02:15:52.705Z,62.05
2019-05-02T02:17:56.912Z,71.12
2019-05-02T02:20:09.744Z,67.30
2019-05-02T02:22:16.195Z,75.50
2019-05-02T02:24:25.094Z,70.10
2019-05-02T02:26:27.892Z,72.27
2019-05-02T02:28:33.129Z,77.08
2019-05-02T02:30:37.370Z,72.17
2019-05-02T02:32:41.548Z,69.15
2019-05-02T02:34:45.381Z,66.17
2019-05-02T02:36:49.584Z,90.80
2019-05-02T02:38:53.682Z,78.60
2019-05-02T02:40:57.585Z,81.78
2019-05-02T02:43:13.044Z,78.87
2019-05-02T02:45:21.565Z,90.85
2019-05-02T02:47:25.392Z,75.60
2019-05-02T02:49:29.236Z,85.50
2019-05-02T02:51:33.405Z,90.38
2019-05-02T02:53:37.632Z,86.25
2019-05-02T02:55:41.827Z,83.50
2019-05-02T02:57:46.044Z,77.90
2019-05-02T02:59:49.895Z,83.03
2019-05-02T03:01:54.058Z,72.80
2019-05-02T03:04:02.140Z,80.83
2019-05-02T03:06:07.623Z,71.67
2019-05-02T03:08:10.265Z,77.60
2019-05-02T03:10:14.493Z,81.22
2019-05-02T03:12:22.404Z,73.25
2019-05-02T03:14:27.897Z,83.50
2019-05-02T03:16:33.677Z,89.65
2019-05-02T03:18:41.053Z,85.28
2019-05-02T03:20:43.872Z,88.12
2019-05-02T03:22:48.062Z,85.45
2019-05-02T03:24:52.163Z,88.22
2019-05-02T03:26:58.425Z,84.75
2019-05-02T03:29:02.537Z,81.82
2019-05-02T03:31:21.867Z,95.87
2019-05-02T03:33:13.113Z,87.20
2019-05-02T03:35:18.846Z,84.93
2019-05-02T03:37:22.765Z,83.87
2019-05-02T03:39:27.004Z,84.80
2019-05-02T03:41:30.896Z,89.25
2019-05-02T03:43:34.789Z,84.77
2019-05-02T03:45:42.796Z,82.35
2019-05-02T03:47:46.543Z,92.85
2019-05-02T03:49:52.233Z,86.05
2019-05-02T03:52:03.128Z,89.65
2019-05-02T03:54:07.409Z,95.55
2019-05-02T03:56:11.512Z,97.37
2019-05-02T03:58:16.580Z,89.42
2019-05-02T04:00:23.865Z,93.95
2019-05-02T04:02:25.438Z,90.00
2019-05-02T04:04:30.532Z,80.22
2019-05-02T04:06:34.742Z,78.30
2019-05-02T04:08:39.322Z,85.30
2019-05-02T04:10:46.276Z,91.95
2019-05-02T04:12:53.267Z,108.07
2019-05-02T04:14:57.474Z,97.42
2019-05-02T04:17:01.642Z,91.95
2019-05-02T04:19:05.876Z,88.20
2019-05-02T04:21:10.292Z,89.62
2019-05-02T04:23:14.896Z,89.97
2019-05-02T04:25:19.736Z,103.42
2019-05-02T04:27:27.904Z,92.90
2019-05-02T04:29:33.106Z,105.27
2019-05-02T04:31:37.490Z,92.95
2019-05-02T04:33:41.475Z,106.03
2019-05-02T04:35:45.604Z,117.40
2019-05-02T04:37:49.808Z,113.77
2019-05-02T04:40:00.706Z,106.17
2019-05-02T04:42:05.328Z,106.65
2019-05-02T04:44:05.526Z,99.07
2019-05-02T04:46:18.085Z,96.43
2019-05-02T04:48:18.241Z,98.50
2019-05-02T04:50:25.201Z,107.20
2019-05-02T04:52:28.731Z,96.25
2019-05-02T04:54:32.895Z,109.32
2019-05-02T04:56:42.253Z,96.63
2019-05-02T04:58:42.998Z,107.17
2019-05-02T05:00:53.462Z,111.88
2019-05-02T05:02:53.359Z,103.65
2019-05-02T05:04:58.241Z,98.22
2019-05-02T05:07:02.082Z,96.25
2019-05-02T05:09:11.756Z,104.65
2019-05-02T05:11:13.908Z,96.20
2019-05-02T05:13:22.822Z,96.28
2019-05-02T05:15:37.059Z,96.60
2019-05-02T05:17:32.966Z,92.35
2019-05-02T05:19:37.369Z,86.65
2019-05-02T05:21:41.732Z,91.20
2019-05-02T05:24:01.022Z,89.92
2019-05-02T05:26:04.638Z,87.57
2019-05-02T05:28:09.001Z,102.92
2019-05-02T05:30:15.802Z,94.70
2019-05-02T05:32:19.495Z,93.40
2019-05-02T05:34:28.498Z,96.37
2019-05-02T05:36:33.714Z,99.10
2019-05-02T05:38:38.370Z,94.62
2019-05-02T05:40:40.953Z,104.50
2019-05-02T05:42:45.050Z,88.33
2019-05-02T05:44:49.265Z,83.90
2019-05-02T05:46:52.816Z,88.53
2019-05-02T05:48:58.259Z,112.57
2019-05-02T05:51:02.434Z,99.47
2019-05-02T05:53:07.968Z,122.35
2019-05-02T05:55:12.845Z,119.53
2019-05-02T05:57:21.050Z,111.30
2019-05-02T05:59:28.271Z,112.23
2019-05-02T06:01:34.099Z,114.90
2019-05-02T06:03:38.468Z,106.00
2019-05-02T06:05:41.186Z,98.13
2019-05-02T06:07:45.026Z,85.13
2019-05-02T06:09:49.566Z,102.50
2019-05-02T06:11:55.372Z,95.97
2019-05-02T06:13:58.690Z,90.10
2019-05-02T06:16:03.346Z,99.30
2019-05-02T06:18:07.136Z,98.40
2019-05-02T06:20:11.321Z,97.47
2019-05-02T06:22:16.501Z,105.97
2019-05-02T06:24:20.148Z,105.23
2019-05-02T06:26:23.966Z,95.27
2019-05-02T06:28:27.885Z,102.07
2019-05-02T06:30:32.369Z,98.50
2019-05-02T06:32:36.298Z,97.40
2019-05-02T06:34:46.627Z,107.53
2019-05-02T06:36:45.436Z,103.20
2019-05-02T06:38:52.294Z,101.87
2019-05-02T06:40:54.616Z,103.37
2019-05-02T06:42:58.476Z,96.67
2019-05-02T06:45:02.403Z,101.10
2019-05-02T06:47:06.008Z,94.27
2019-05-02T06:49:09.898Z,104.27
2019-05-02T06:51:19.606Z,107.07
2019-05-02T06:53:19.343Z,98.23
2019-05-02T06:55:23.248Z,94.10
2019-05-02T06:57:27.160Z,97.03
2019-05-02T06:59:31.063Z,97.50
2019-05-02T07:01:35.060Z,104.73
2019-05-02T07:03:41.274Z,113.60
2019-05-02T07:05:43.840Z,108.77
2019-05-02T07:07:47.712Z,101.47
2019-05-02T07:09:51.274Z,100.10
2019-05-02T07:11:57.832Z,104.93
2019-05-02T07:14:12.583Z,93.97
2019-05-02T07:16:15.487Z,95.13
2019-05-02T07:18:17.883Z,97.33
2019-05-02T07:20:21.778Z,94.27
2019-05-02T07:22:25.889Z,90.63
2019-05-02T07:24:30.729Z,92.87
2019-05-02T07:26:34.825Z,94.00
2019-05-02T07:28:40.178Z,100.13
2019-05-02T07:30:44.483Z,99.00
2019-05-02T07:32:48.392Z,91.17
2019-05-02T07:34:52.301Z,87.57
2019-05-02T07:36:56.202Z,90.93
2019-05-02T07:39:05.211Z,89.47
2019-05-02T07:41:06.065Z,92.00
2019-05-02T07:43:13.023Z,88.60
2019-05-02T07:45:15.926Z,81.73
2019-05-02T07:47:19.813Z,84.30
2019-05-02T07:49:26.547Z,84.07
2019-05-02T07:51:29.944Z,87.50
2019-05-02T07:53:33.801Z,84.53
2019-05-02T07:55:40.643Z,85.40
2019-05-02T07:57:42.932Z,83.60
2019-05-02T07:59:49.553Z,82.03
2019-05-02T08:01:52.173Z,83.37
2019-05-02T08:03:56.099Z,79.53
2019-05-02T08:06:00.103Z,74.73
2019-05-02T08:08:04.090Z,77.27
2019-05-02T08:10:08.821Z,77.40
2019-05-02T08:12:13.708Z,75.83
2019-05-02T08:14:17.655Z,78.93
2019-05-02T08:16:22.355Z,69.97
2019-05-02T08:18:30.359Z,75.40
2019-05-02T08:20:32.554Z,75.30
2019-05-02T08:22:36.110Z,78.10
2019-05-02T08:24:39.952Z,71.03
2019-05-02T08:26:45.485Z,65.83
2019-05-02T08:29:02.713Z,75.90
2019-05-02T08:31:06.503Z,69.13
2019-05-02T08:33:10.060Z,62.50
2019-05-02T08:35:14.029Z,70.47
2019-05-02T08:37:17.922Z,68.57
2019-05-02T08:39:25.929Z,74.17
2019-05-02T08:41:26.711Z,75.23
2019-05-02T08:43:30.674Z,63.90
2019-05-02T08:45:38.118Z,62.43
2019-05-02T08:47:40.217Z,69.13
2019-05-02T08:49:44.237Z,66.70
2019-05-02T08:51:48.123Z,64.77
2019-05-02T08:53:56.614Z,68.87
2019-05-02T08:55:57.688Z,66.57
2019-05-02T08:58:05.845Z,63.43
2019-05-02T09:00:10.510Z,67.83
2019-05-02T09:02:14.402Z,61.03
2019-05-02T09:04:18.215Z,59.27
2019-05-02T09:06:24.042Z,63.27
2019-05-02T09:08:27.393Z,62.63
2019-05-02T09:10:31.290Z,58.97
2019-05-02T09:12:36.859Z,58.73
2019-05-02T09:14:42.596Z,58.13
2019-05-02T09:16:46.570Z,62.83
2019-05-02T09:18:53.798Z,63.43
2019-05-02T09:20:56.736Z,64.67
2019-05-02T09:23:01.742Z,58.13
2019-05-02T09:25:09.460Z,54.97
2019-05-02T09:27:13.369Z,59.00
2019-05-02T09:29:17.295Z,60.97
2019-05-02T09:31:22.642Z,55.23
2019-05-02T09:33:26.409Z,50.23
2019-05-02T09:35:30.321Z,51.47
2019-05-02T09:37:33.917Z,50.03
2019-05-02T09:39:37.820Z,54.43
2019-05-02T09:41:41.973Z,45.90
2019-05-02T09:43:45.832Z,49.87
2019-05-02T09:45:51.859Z,52.27
2019-05-02T09:48:04.151Z,51.60
2019-05-02T09:50:08.375Z,50.23
2019-05-02T09:52:11.969Z,50.77
2019-05-02T09:54:15.802Z,46.30
2019-05-02T09:56:19.619Z,50.10
2019-05-02T09:58:24.085Z,49.20
2019-05-02T10:00:32.138Z,43.83
2019-05-02T10:02:35.681Z,46.67
2019-05-02T10:04:43.448Z,46.07
2019-05-02T10:06:45.081Z,48.83
2019-05-02T10:08:49.089Z,41.20
2019-05-02T10:10:52.931Z,44.40
2019-05-02T10:12:56.801Z,43.27
2019-05-02T10:15:02.370Z,46.40
2019-05-02T10:17:07.404Z,41.20
2019-05-02T10:19:13.501Z,49.43
2019-05-02T10:21:17.312Z,42.67
2019-05-02T10:23:23.237Z,45.43
2019-05-02T10:25:32.836Z,47.00
2019-05-02T10:27:32.340Z,47.17
2019-05-02T10:29:36.132Z,45.53
2019-05-02T10:31:42.071Z,43.40
2019-05-02T10:33:45.565Z,40.23
2019-05-02T10:35:52.378Z,47.00
2019-05-02T10:37:55.947Z,35.83
2019-05-02T10:39:59.850Z,42.80
2019-05-02T10:42:03.759Z,36.23
2019-05-02T10:44:07.670Z,41.47
2019-05-02T10:46:15.852Z,42.03
2019-05-02T10:48:27.406Z,42.13
2019-05-02T10:50:29.421Z,37.63
2019-05-02T10:52:34.219Z,42.07
2019-05-02T10:54:38.245Z,37.23
2019-05-02T10:56:42.383Z,40.30
2019-05-02T10:58:46.261Z,37.87
2019-05-02T11:00:52.183Z,38.70
2019-05-02T11:03:09.451Z,35.03
2019-05-02T11:05:22.550Z,35.23
2019-05-02T11:07:26.397Z,36.23
2019-05-02T11:09:29.045Z,31.17
2019-05-02T11:11:33.047Z,33.73
2019-05-02T11:13:42.503Z,33.97
2019-05-02T11:15:48.628Z,32.03
2019-05-02T11:17:52.938Z,27.87
2019-05-02T11:20:01.883Z,36.27
2019-05-02T11:22:05.995Z,31.83
2019-05-02T11:24:12.221Z,31.27
2019-05-02T11:26:21.446Z,33.53
2019-05-02T11:28:22.033Z,35.87
2019-05-02T11:30:26.707Z,37.10
2019-05-02T11:32:32.710Z,36.50
2019-05-02T11:34:36.382Z,33.97
2019-05-02T11:36:41.555Z,34.43
2019-05-02T11:38:48.077Z,35.87
2019-05-02T11:40:52.085Z,35.57
2019-05-02T11:42:57.236Z,28.87
2019-05-02T11:45:02.679Z,32.90
2019-05-02T11:47:06.453Z,29.20
2019-05-02T11:49:12.136Z,31.17
2019-05-02T11:51:16.527Z,30.57
2019-05-02T11:53:28.841Z,32.03
2019-05-02T11:55:28.962Z,26.77
2019-05-02T11:57:33.227Z,30.40
2019-05-02T11:59:37.261Z,30.93
2019-05-02T12:01:56.214Z,31.27
2019-05-02T12:03:52.229Z,29.60
2019-05-02T12:05:55.740Z,26.30
2019-05-02T12:08:02.588Z,28.83
2019-05-02T12:10:07.034Z,28.80
2019-05-02T12:12:12.380Z,26.07
2019-05-02T12:14:16.053Z,25.00
2019-05-02T12:16:20.007Z,22.30
2019-05-02T12:18:23.880Z,28.80
2019-05-02T12:20:28.675Z,30.13
2019-05-02T12:22:33.556Z,23.50
2019-05-02T12:24:40.845Z,29.53
2019-05-02T12:26:43.096Z,23.70
2019-05-02T12:28:47.006Z,26.63
2019-05-02T12:30:51.921Z,23.73
2019-05-02T12:32:56.061Z,23.30
2019-05-02T12:34:59.973Z,24.07
2019-05-02T12:37:05.800Z,27.03
2019-05-02T12:39:09.908Z,21.63
2019-05-02T12:41:20.362Z,27.30
2019-05-02T12:43:19.140Z,28.90
2019-05-02T12:45:22.674Z,25.77
2019-05-02T12:47:26.966Z,25.27
2019-05-02T12:49:32.463Z,29.03
2019-05-02T12:51:36.619Z,25.53
2019-05-02T12:53:41.791Z,25.93
2019-05-02T12:55:45.752Z,25.60
2019-05-02T12:57:49.692Z,22.60
2019-05-02T12:59:53.206Z,23.60
2019-05-02T13:01:59.839Z,23.47
2019-05-02T13:04:12.450Z,21.27
2019-05-02T13:06:16.208Z,22.33
2019-05-02T13:08:21.866Z,22.00
2019-05-02T13:10:27.226Z,25.00
2019-05-02T13:12:32.775Z,26.73
2019-05-02T13:14:36.682Z,25.40
2019-05-02T13:16:40.228Z,22.33
2019-05-02T13:18:44.073Z,26.03
2019-05-02T13:20:47.973Z,23.33
2019-05-02T13:23:08.988Z,19.67
2019-05-02T13:25:14.418Z,23.27
2019-05-02T13:27:18.477Z,24.83
2019-05-02T13:29:22.558Z,25.83
2019-05-02T13:31:28.097Z,22.00
2019-05-02T13:33:35.823Z,22.67
2019-05-02T13:35:43.980Z,19.67
2019-05-02T13:37:48.822Z,23.20
2019-05-02T13:39:54.462Z,21.80
2019-05-02T13:41:58.374Z,26.73
2019-05-02T13:44:02.701Z,24.93
2019-05-02T13:46:12.617Z,24.83
2019-05-02T13:48:16.636Z,26.53
2019-05-02T13:50:22.336Z,26.83
2019-05-02T13:52:26.399Z,23.27
2019-05-02T13:54:32.890Z,21.70
2019-05-02T13:56:45.135Z,25.80
2019-05-02T13:58:49.175Z,21.90
2019-05-02T14:00:52.983Z,25.43
2019-05-02T14:02:56.868Z,24.07
2019-05-02T14:05:02.281Z,25.33
2019-05-02T14:07:07.576Z,25.30
2019-05-02T14:09:19.996Z,26.10
2019-05-02T14:11:43.394Z,23.47
2019-05-02T14:13:46.820Z,26.63
2019-05-02T14:15:52.610Z,26.90
2019-05-02T14:17:56.266Z,26.27
2019-05-02T14:20:08.585Z,28.17
2019-05-02T14:22:05.517Z,28.97
2019-05-02T14:24:09.425Z,28.63
2019-05-02T14:26:13.346Z,27.10
2019-05-02T14:28:17.232Z,25.87
2019-05-02T14:30:35.732Z,25.30
2019-05-02T14:32:28.146Z,26.37
2019-05-02T14:34:36.111Z,30.70
2019-05-02T14:36:40.019Z,31.07
2019-05-02T14:38:43.554Z,28.83
2019-05-02T14:40:58.486Z,28.07
2019-05-02T14:43:05.255Z,28.60
2019-05-02T14:45:17.789Z,33.77
2019-05-02T14:47:17.902Z,28.93
2019-05-02T14:49:23.895Z,26.37
2019-05-02T14:51:27.785Z,27.77
2019-05-02T14:53:31.924Z,28.40
2019-05-02T14:55:36.905Z,27.50
2019-05-02T14:57:42.744Z,26.30
2019-05-02T14:59:50.237Z,23.10
2019-05-02T15:01:57.959Z,23.73
2019-05-02T15:04:04.101Z,28.23
2019-05-02T15:06:06.998Z,24.30
2019-05-02T15:08:11.769Z,22.57
2019-05-02T15:10:16.355Z,23.53
2019-05-02T15:12:22.090Z,23.97
2019-05-02T15:14:27.828Z,24.83
2019-05-02T15:16:40.498Z,25.30
2019-05-02T15:18:37.423Z,24.47
2019-05-02T15:20:42.393Z,26.17
2019-05-02T15:22:45.987Z,20.37
2019-05-02T15:24:49.901Z,19.30
2019-05-02T15:26:53.814Z,20.67
2019-05-02T15:28:57.696Z,20.17
2019-05-02T15:31:06.202Z,19.10
2019-05-02T15:33:12.542Z,18.40
2019-05-02T15:35:23.017Z,18.40
2019-05-02T15:37:25.666Z,17.00
2019-05-02T15:41:35.046Z,17.53
2019-05-02T15:43:39.202Z,18.27
2019-05-02T15:45:45.444Z,20.37
2019-05-02T15:47:49.316Z,18.13
2019-05-02T15:49:53.122Z,18.63
2019-05-02T15:51:57.042Z,16.37
2019-05-02T15:54:08.130Z,15.80
2019-05-02T15:56:18.699Z,19.00
2019-05-02T15:58:16.879Z,22.77
2019-05-02T16:00:25.706Z,23.27
2019-05-02T16:02:32.035Z,23.00
2019-05-02T16:04:37.573Z,21.73
2019-05-02T16:06:41.927Z,20.60
2019-05-02T16:08:47.335Z,21.70
2019-05-02T16:10:51.221Z,21.27
2019-05-02T16:12:55.218Z,18.83
2019-05-02T16:14:59.154Z,22.37
2019-05-02T16:17:03.788Z,20.97
2019-05-02T16:19:07.569Z,24.67
2019-05-02T16:21:13.114Z,24.07
2019-05-02T16:23:19.053Z,19.10
2019-05-02T16:25:24.385Z,23.30
2019-05-02T16:27:45.206Z,21.73
2019-05-02T16:29:49.012Z,23.57
2019-05-02T16:31:59.666Z,26.10
2019-05-02T16:34:02.652Z,27.47
2019-05-02T16:36:06.880Z,30.20
2019-05-02T16:38:12.288Z,31.00
2019-05-02T16:40:22.131Z,33.97
2019-05-02T16:42:23.517Z,26.03
2019-05-02T16:44:27.405Z,33.47
2019-05-02T16:46:32.298Z,29.47
2019-05-02T16:48:37.695Z,32.53
2019-05-02T16:50:42.720Z,33.50
2019-05-02T16:52:47.584Z,34.10
2019-05-02T16:54:52.686Z,37.40
2019-05-02T16:56:58.559Z,34.67
2019-05-02T16:59:02.130Z,33.40
2019-05-02T17:01:06.534Z,32.67
2019-05-02T17:03:12.539Z,32.73
2019-05-02T17:05:16.516Z,42.50
2019-05-02T17:07:22.132Z,45.93
2019-05-02T17:09:33.536Z,47.30
2019-05-02T17:11:48.154Z,47.10
2019-05-02T17:13:52.750Z,50.13
2019-05-02T17:15:56.619Z,45.37
2019-05-02T17:18:04.952Z,46.03
2019-05-02T17:20:12.180Z,51.53
2019-05-02T17:22:16.632Z,48.60
2019-05-02T17:24:22.639Z,52.10
2019-05-02T17:26:24.226Z,56.37
2019-05-02T17:28:28.125Z,50.40
2019-05-02T17:30:38.649Z,57.57
2019-05-02T17:32:37.827Z,51.33
2019-05-02T17:34:42.243Z,52.17
2019-05-02T17:36:45.935Z,54.10
2019-05-02T17:38:54.258Z,42.20
2019-05-02T17:40:59.331Z,32.73
2019-05-02T17:43:06.563Z,30.53
2019-05-02T17:45:09.204Z,30.27
2019-05-02T17:47:14.291Z,34.73
2019-05-02T17:49:18.556Z,31.53
2019-05-02T17:51:28.218Z,32.30
2019-05-02T17:53:33.953Z,39.13
2019-05-02T17:55:40.440Z,39.50
2019-05-02T17:57:41.891Z,33.50
2019-05-02T17:59:45.191Z,42.10
2019-05-02T18:01:48.745Z,38.30
2019-05-02T18:03:52.280Z,34.63
2019-05-02T18:05:56.136Z,41.07
2019-05-02T18:08:00.045Z,40.43
2019-05-02T18:10:13.584Z,42.07
2019-05-02T18:12:15.067Z,40.70
2019-05-02T18:14:21.147Z,47.07
2019-05-02T18:16:22.938Z,44.03
2019-05-02T18:18:26.852Z,46.90
2019-05-02T18:20:32.372Z,48.47
2019-05-02T18:22:40.031Z,46.57
2019-05-02T18:24:42.811Z,53.83
2019-05-02T18:26:46.447Z,51.27
2019-05-02T18:28:52.544Z,47.33
2019-05-02T18:30:57.093Z,53.10
2019-05-02T18:33:03.563Z,53.43
2019-05-02T18:35:07.188Z,55.43
2019-05-02T18:37:10.983Z,51.70
2019-05-02T18:39:14.921Z,54.53
2019-05-02T18:41:18.823Z,57.97
2019-05-02T18:43:23.474Z,54.50
2019-05-02T18:45:28.794Z,54.13
2019-05-02T18:47:33.424Z,54.20
2019-05-02T18:49:37.514Z,49.97
2019-05-02T18:51:42.383Z,56.17
2019-05-02T18:53:46.363Z,52.13
2019-05-02T18:55:51.917Z,51.90
2019-05-02T18:57:57.055Z,50.87
2019-05-02T19:00:01.969Z,49.97
2019-05-02T19:02:06.159Z,53.87
2019-05-02T19:04:10.094Z,58.70
2019-05-02T19:06:13.736Z,46.77
2019-05-02T19:08:28.178Z,48.87
2019-05-02T19:10:23.427Z,48.00
2019-05-02T19:12:27.265Z,49.07
2019-05-02T19:14:32.757Z,54.80
2019-05-02T19:16:36.620Z,55.90
2019-05-02T19:18:42.516Z,50.97
2019-05-02T19:20:57.383Z,49.87
2019-05-02T19:23:02.714Z,49.33
2019-05-02T19:25:06.534Z,52.90
2019-05-02T19:27:12.843Z,47.00
2019-05-02T19:29:24.151Z,45.03
2019-05-02T19:31:29.618Z,46.63
2019-05-02T19:33:37.597Z,50.20
2019-05-02T19:35:43.206Z,44.17
2019-05-02T19:37:47.783Z,41.90
2019-05-02T19:39:50.214Z,41.63
2019-05-02T19:41:54.145Z,39.20
2019-05-02T19:43:58.066Z,43.47
2019-05-02T19:46:02.317Z,43.20
2019-05-02T19:48:06.383Z,44.53
2019-05-02T19:50:33.719Z,38.47
2019-05-02T19:52:39.264Z,43.03
2019-05-02T19:54:41.220Z,43.63
2019-05-02T19:56:47.560Z,44.23
2019-05-02T19:58:52.143Z,42.00
2019-05-02T20:00:57.979Z,44.03
2019-05-02T20:03:01.905Z,42.90
2019-05-02T20:05:06.695Z,43.47
2019-05-02T20:07:12.373Z,42.60
2019-05-02T20:09:16.481Z,41.77
2019-05-02T20:11:21.831Z,43.33
2019-05-02T20:13:30.570Z,45.53
2019-05-02T20:15:32.924Z,42.77
2019-05-02T20:17:36.385Z,46.20
2019-05-02T20:19:42.304Z,48.03
2019-05-02T20:21:47.883Z,45.03
2019-05-02T20:23:51.499Z,43.17
2019-05-02T20:25:55.596Z,40.00
2019-05-02T20:27:59.141Z,42.70
2019-05-02T20:30:03.183Z,49.20
2019-05-02T20:32:06.738Z,50.50
2019-05-02T20:34:11.805Z,45.50
2019-05-02T20:36:15.841Z,47.03
2019-05-02T20:38:21.740Z,46.77
2019-05-02T20:40:33.269Z,43.20
2019-05-02T20:42:37.092Z,40.97
2019-05-02T20:44:41.900Z,46.93
2019-05-02T20:46:45.936Z,45.00
2019-05-02T20:48:50.134Z,39.10
2019-05-02T20:50:53.694Z,40.27
2019-05-02T20:52:57.852Z,37.43
2019-05-02T20:55:01.920Z,28.57
2019-05-02T20:57:05.549Z,27.13
2019-05-02T20:59:09.446Z,30.90
2019-05-02T21:01:13.455Z,20.77
2019-05-02T21:03:17.375Z,20.43
2019-05-02T21:05:24.962Z,21.50
2019-05-02T21:07:36.271Z,12.17
2019-05-02T21:09:47.286Z,12.60
2019-05-02T21:11:52.747Z,11.27
2019-05-02T21:13:56.649Z,9.63
2019-05-02T21:16:01.811Z,10.77
2019-05-02T21:18:05.995Z,11.43
2019-05-02T21:20:10.005Z,9.60
2019-05-02T21:22:19.283Z,9.10
2019-05-02T21:24:22.837Z,9.33
2019-05-02T21:26:26.737Z,7.57
2019-05-02T21:28:32.117Z,6.77
2019-05-02T21:30:36.297Z,7.87
2019-05-02T21:32:40.196Z,6.00
2019-05-02T21:34:44.093Z,6.63
2019-05-02T21:36:47.719Z,6.23
2019-05-02T21:38:52.074Z,7.07
2019-05-02T21:40:56.333Z,6.07
2019-05-02T21:43:02.352Z,6.30
2019-05-02T21:45:07.122Z,5.60
2019-05-02T21:47:10.998Z,6.60
2019-05-02T21:49:16.966Z,5.83
2019-05-02T21:51:22.812Z,5.78
2019-05-02T21:53:54.955Z,6.10
2019-05-02T21:55:52.231Z,6.00
2019-05-02T21:57:56.137Z,6.37
2019-05-02T21:59:59.952Z,6.20
2019-05-02T22:02:05.403Z,6.80
2019-05-02T22:04:09.294Z,5.90
2019-05-02T22:06:13.395Z,5.97
2019-05-02T22:08:17.291Z,7.90
2019-05-02T22:10:22.707Z,7.93
2019-05-02T22:12:26.782Z,5.97
2019-05-02T22:14:30.356Z,6.60
2019-05-02T22:16:34.165Z,7.10
2019-05-02T22:18:38.059Z,7.07
2019-05-02T22:20:42.791Z,7.23
2019-05-02T22:22:46.696Z,8.10
2019-05-02T22:24:52.814Z,6.85
2019-05-02T22:26:56.650Z,6.20
2019-05-02T22:29:01.909Z,6.40
2019-05-02T22:31:06.098Z,6.90
2019-05-02T22:33:11.782Z,8.00
2019-05-02T22:35:15.664Z,7.40
2019-05-02T22:37:22.050Z,6.00
2019-05-02T22:39:27.559Z,6.63
2019-05-02T22:41:32.560Z,6.70
2019-05-02T22:43:36.276Z,7.27
2019-05-02T22:45:41.778Z,7.60
2019-05-02T22:47:45.496Z,7.40
2019-05-02T22:49:49.337Z,7.83
2019-05-02T22:51:52.950Z,6.60
2019-05-02T22:53:56.841Z,7.50
2019-05-02T22:56:00.954Z,6.83
2019-05-02T22:58:04.852Z,7.97
2019-05-02T23:00:09.572Z,7.53
2019-05-02T23:02:13.782Z,7.90
2019-05-02T23:04:17.715Z,8.53
2019-05-02T23:06:21.610Z,7.17
2019-05-02T23:08:25.154Z,7.83
2019-05-02T23:10:28.696Z,6.60
2019-05-02T23:12:32.243Z,9.13
2019-05-02T23:14:36.100Z,6.97
2019-05-02T23:16:42.324Z,7.17
2019-05-02T23:18:45.757Z,8.03
2019-05-02T23:20:49.865Z,7.58
2019-05-02T23:22:53.387Z,7.60
2019-05-02T23:25:02.916Z,7.80
2019-05-02T23:27:17.464Z,7.95
2019-05-02T23:29:22.596Z,9.83
2019-05-02T23:31:26.800Z,9.90
2019-05-02T23:33:48.432Z,8.68
2019-05-02T23:35:52.634Z,9.85
2019-05-02T23:37:56.749Z,8.60
2019-05-02T23:40:02.044Z,8.50
2019-05-02T23:42:05.757Z,9.43
2019-05-02T23:44:09.886Z,9.63
2019-05-02T23:46:13.717Z,8.80
2019-05-02T23:48:17.333Z,10.83
2019-05-02T23:50:22.831Z,10.23
2019-05-02T23:52:26.838Z,9.53
2019-05-02T23:54:32.452Z,9.00
2019-05-02T23:56:36.503Z,10.50
2019-05-02T23:58:40.295Z,10.60
